sensor_id;sensor_type;location;lat;lon;timestamp;pressure;altitude;pressure_sealevel;temperature;humidity
64053;BME280;50299;49.524;8.536;2022-07-29T00:01:43;100268.16;;;17.65;37.81
64053;BME280;50299;49.524;8.536;2022-07-29T00:04:10;100269.50;;;17.45;38.52
64053;BME280;50299;49.524;8.536;2022-07-29T00:06:37;100271.19;;;16.93;39.81
64053;BME280;50299;49.524;8.536;2022-07-29T00:09:03;100269.28;;;16.70;40.76
64053;BME280;50299;49.524;8.536;2022-07-29T00:11:30;100268.47;;;16.47;40.77
64053;BME280;50299;49.524;8.536;2022-07-29T00:13:56;100268.41;;;16.43;41.15
64053;BME280;50299;49.524;8.536;2022-07-29T00:16:23;100270.13;;;16.51;42.36
64053;BME280;50299;49.524;8.536;2022-07-29T00:18:49;100266.72;;;16.39;41.42
64053;BME280;50299;49.524;8.536;2022-07-29T00:21:15;100275.34;;;16.07;41.71
64053;BME280;50299;49.524;8.536;2022-07-29T00:23:42;100273.59;;;15.99;42.08
64053;BME280;50299;49.524;8.536;2022-07-29T00:26:08;100264.09;;;15.61;42.86
64053;BME280;50299;49.524;8.536;2022-07-29T00:28:35;100257.97;;;15.33;43.06
64053;BME280;50299;49.524;8.536;2022-07-29T00:31:01;100260.97;;;15.43;42.66
64053;BME280;50299;49.524;8.536;2022-07-29T00:33:28;100253.41;;;15.63;42.96
64053;BME280;50299;49.524;8.536;2022-07-29T00:35:54;100251.09;;;15.88;43.19
64053;BME280;50299;49.524;8.536;2022-07-29T00:38:22;100238.09;;;16.19;45.87
64053;BME280;50299;49.524;8.536;2022-07-29T00:40:49;100240.03;;;16.38;42.27
64053;BME280;50299;49.524;8.536;2022-07-29T00:43:16;100241.34;;;15.78;42.69
64053;BME280;50299;49.524;8.536;2022-07-29T00:45:43;100245.56;;;15.49;43.15
64053;BME280;50299;49.524;8.536;2022-07-29T00:48:10;100253.81;;;15.85;45.37
64053;BME280;50299;49.524;8.536;2022-07-29T00:50:37;100253.78;;;16.04;42.99
64053;BME280;50299;49.524;8.536;2022-07-29T00:53:06;100249.44;;;16.07;42.17
64053;BME280;50299;49.524;8.536;2022-07-29T00:55:33;100255.50;;;15.12;44.60
64053;BME280;50299;49.524;8.536;2022-07-29T00:58:00;100254.66;;;15.46;43.87
64053;BME280;50299;49.524;8.536;2022-07-29T01:00:28;100250.63;;;15.63;43.05
64053;BME280;50299;49.524;8.536;2022-07-29T01:02:55;100239.59;;;15.70;42.85
64053;BME280;50299;49.524;8.536;2022-07-29T01:05:23;100242.66;;;15.85;42.84
64053;BME280;50299;49.524;8.536;2022-07-29T01:08:11;100236.25;;;16.03;42.56
64053;BME280;50299;49.524;8.536;2022-07-29T01:10:39;100231.00;;;16.21;42.30
64053;BME280;50299;49.524;8.536;2022-07-29T01:13:08;100238.78;;;16.35;42.82
64053;BME280;50299;49.524;8.536;2022-07-29T01:15:43;100226.56;;;16.43;42.95
64053;BME280;50299;49.524;8.536;2022-07-29T01:18:25;100221.13;;;16.27;41.69
64053;BME280;50299;49.524;8.536;2022-07-29T01:26:24;100224.75;;;15.86;42.66
64053;BME280;50299;49.524;8.536;2022-07-29T01:28:59;100221.22;;;15.66;42.67
64053;BME280;50299;49.524;8.536;2022-07-29T01:31:45;100222.72;;;15.21;43.42
64053;BME280;50299;49.524;8.536;2022-07-29T01:34:35;100221.66;;;14.90;44.34
64053;BME280;50299;49.524;8.536;2022-07-29T01:39:36;100214.16;;;14.75;45.82
64053;BME280;50299;49.524;8.536;2022-07-29T01:44:37;100198.19;;;14.37;46.26
64053;BME280;50299;49.524;8.536;2022-07-29T01:47:12;100192.97;;;14.03;46.06
64053;BME280;50299;49.524;8.536;2022-07-29T01:49:44;100193.31;;;14.02;46.31
64053;BME280;50299;49.524;8.536;2022-07-29T01:52:20;100197.00;;;14.38;46.57
64053;BME280;50299;49.524;8.536;2022-07-29T01:54:52;100193.91;;;14.59;45.35
64053;BME280;50299;49.524;8.536;2022-07-29T01:57:26;100198.50;;;14.86;44.19
64053;BME280;50299;49.524;8.536;2022-07-29T01:59:54;100197.19;;;14.99;43.89
64053;BME280;50299;49.524;8.536;2022-07-29T02:02:23;100206.47;;;15.23;43.17
64053;BME280;50299;49.524;8.536;2022-07-29T02:04:50;100205.19;;;15.40;51.47
64053;BME280;50299;49.524;8.536;2022-07-29T02:07:21;100208.69;;;15.56;46.35
64053;BME280;50299;49.524;8.536;2022-07-29T02:09:49;100206.06;;;15.63;42.71
64053;BME280;50299;49.524;8.536;2022-07-29T02:12:17;100200.47;;;15.63;42.94
64053;BME280;50299;49.524;8.536;2022-07-29T02:14:47;100205.09;;;15.56;43.40
64053;BME280;50299;49.524;8.536;2022-07-29T02:17:39;100205.47;;;15.54;45.20
64053;BME280;50299;49.524;8.536;2022-07-29T02:20:05;100206.94;;;15.48;43.65
64053;BME280;50299;49.524;8.536;2022-07-29T02:22:35;100206.06;;;15.44;44.84
64053;BME280;50299;49.524;8.536;2022-07-29T02:25:04;100198.91;;;15.43;44.15
64053;BME280;50299;49.524;8.536;2022-07-29T02:27:40;100195.16;;;15.35;43.66
64053;BME280;50299;49.524;8.536;2022-07-29T02:30:08;100199.13;;;15.15;44.24
64053;BME280;50299;49.524;8.536;2022-07-29T02:32:37;100200.84;;;15.03;43.77
64053;BME280;50299;49.524;8.536;2022-07-29T02:35:08;100202.97;;;14.91;43.77
64053;BME280;50299;49.524;8.536;2022-07-29T02:37:36;100200.94;;;14.72;44.52
64053;BME280;50299;49.524;8.536;2022-07-29T02:40:04;100204.63;;;14.76;46.10
64053;BME280;50299;49.524;8.536;2022-07-29T02:42:33;100207.66;;;14.87;50.10
64053;BME280;50299;49.524;8.536;2022-07-29T02:45:02;100209.72;;;14.90;46.57
64053;BME280;50299;49.524;8.536;2022-07-29T02:47:43;100206.94;;;14.90;44.97
64053;BME280;50299;49.524;8.536;2022-07-29T02:50:17;100205.66;;;14.87;45.31
64053;BME280;50299;49.524;8.536;2022-07-29T02:52:55;100203.25;;;14.86;46.99
64053;BME280;50299;49.524;8.536;2022-07-29T02:55:33;100205.38;;;14.92;45.29
64053;BME280;50299;49.524;8.536;2022-07-29T02:58:09;100201.91;;;14.79;44.73
64053;BME280;50299;49.524;8.536;2022-07-29T03:00:38;100196.78;;;14.62;45.60
64053;BME280;50299;49.524;8.536;2022-07-29T03:03:09;100204.16;;;14.54;45.94
64053;BME280;50299;49.524;8.536;2022-07-29T03:05:38;100201.00;;;14.56;45.93
64053;BME280;50299;49.524;8.536;2022-07-29T03:08:07;100202.03;;;14.48;46.50
64053;BME280;50299;49.524;8.536;2022-07-29T03:10:37;100198.78;;;14.46;46.52
64053;BME280;50299;49.524;8.536;2022-07-29T03:13:04;100209.28;;;14.37;45.90
64053;BME280;50299;49.524;8.536;2022-07-29T03:15:31;100202.13;;;14.20;46.76
64053;BME280;50299;49.524;8.536;2022-07-29T03:17:58;100199.06;;;14.09;46.35
64053;BME280;50299;49.524;8.536;2022-07-29T03:20:26;100203.44;;;13.94;46.55
64053;BME280;50299;49.524;8.536;2022-07-29T03:22:52;100209.91;;;13.98;46.99
64053;BME280;50299;49.524;8.536;2022-07-29T03:25:19;100200.31;;;14.12;46.93
64053;BME280;50299;49.524;8.536;2022-07-29T03:27:47;100196.38;;;13.97;46.78
64053;BME280;50299;49.524;8.536;2022-07-29T03:30:14;100196.09;;;14.02;49.90
64053;BME280;50299;49.524;8.536;2022-07-29T03:32:47;100201.94;;;14.13;47.97
64053;BME280;50299;49.524;8.536;2022-07-29T03:35:14;100204.00;;;14.00;47.64
64053;BME280;50299;49.524;8.536;2022-07-29T03:37:43;100195.81;;;13.75;47.68
64053;BME280;50299;49.524;8.536;2022-07-29T03:40:11;100200.91;;;13.58;48.36
64053;BME280;50299;49.524;8.536;2022-07-29T03:42:42;100200.47;;;13.43;48.63
64053;BME280;50299;49.524;8.536;2022-07-29T03:45:14;100205.03;;;13.36;48.80
64053;BME280;50299;49.524;8.536;2022-07-29T03:47:50;100199.84;;;13.34;49.71
64053;BME280;50299;49.524;8.536;2022-07-29T03:50:25;100205.47;;;13.50;50.01
64053;BME280;50299;49.524;8.536;2022-07-29T03:52:52;100201.88;;;13.65;49.88
64053;BME280;50299;49.524;8.536;2022-07-29T03:55:18;100198.59;;;13.75;51.23
64053;BME280;50299;49.524;8.536;2022-07-29T03:57:46;100198.97;;;13.74;53.42
64053;BME280;50299;49.524;8.536;2022-07-29T04:00:13;100200.22;;;13.76;50.11
64053;BME280;50299;49.524;8.536;2022-07-29T04:02:43;100201.41;;;13.91;51.68
64053;BME280;50299;49.524;8.536;2022-07-29T04:05:13;100199.75;;;14.06;55.27
64053;BME280;50299;49.524;8.536;2022-07-29T04:07:43;100204.09;;;14.19;55.78
64053;BME280;50299;49.524;8.536;2022-07-29T04:10:10;100203.34;;;14.06;48.13
64053;BME280;50299;49.524;8.536;2022-07-29T04:12:37;100205.97;;;13.99;48.88
64053;BME280;50299;49.524;8.536;2022-07-29T04:15:04;100206.69;;;13.96;48.87
64053;BME280;50299;49.524;8.536;2022-07-29T04:17:31;100208.47;;;14.04;49.45
64053;BME280;50299;49.524;8.536;2022-07-29T04:19:57;100212.94;;;14.09;49.77
64053;BME280;50299;49.524;8.536;2022-07-29T04:22:24;100217.44;;;14.14;49.07
64053;BME280;50299;49.524;8.536;2022-07-29T04:24:52;100210.53;;;14.23;48.24
64053;BME280;50299;49.524;8.536;2022-07-29T04:27:19;100210.97;;;14.25;47.82
64053;BME280;50299;49.524;8.536;2022-07-29T04:29:46;100212.78;;;14.18;47.80
64053;BME280;50299;49.524;8.536;2022-07-29T04:32:23;100216.72;;;14.01;48.21
64053;BME280;50299;49.524;8.536;2022-07-29T04:34:50;100215.38;;;13.95;48.82
64053;BME280;50299;49.524;8.536;2022-07-29T04:37:16;100217.19;;;14.03;50.17
64053;BME280;50299;49.524;8.536;2022-07-29T04:39:43;100216.63;;;14.29;48.50
64053;BME280;50299;49.524;8.536;2022-07-29T04:42:09;100224.97;;;14.45;47.78
64053;BME280;50299;49.524;8.536;2022-07-29T04:44:36;100220.91;;;14.58;47.60
64053;BME280;50299;49.524;8.536;2022-07-29T04:47:08;100224.63;;;14.82;50.52
64053;BME280;50299;49.524;8.536;2022-07-29T04:49:37;100230.44;;;15.12;47.70
64053;BME280;50299;49.524;8.536;2022-07-29T04:52:04;100224.16;;;15.34;46.59
64053;BME280;50299;49.524;8.536;2022-07-29T04:54:31;100222.63;;;15.56;45.55
64053;BME280;50299;49.524;8.536;2022-07-29T04:56:57;100222.59;;;15.75;46.64
64053;BME280;50299;49.524;8.536;2022-07-29T04:59:24;100224.03;;;16.12;47.47
64053;BME280;50299;49.524;8.536;2022-07-29T05:01:51;100219.38;;;16.42;45.34
64053;BME280;50299;49.524;8.536;2022-07-29T05:04:17;100224.56;;;16.67;43.70
64053;BME280;50299;49.524;8.536;2022-07-29T05:06:45;100219.38;;;16.95;43.73
64053;BME280;50299;49.524;8.536;2022-07-29T05:09:11;100225.28;;;17.20;42.91
64053;BME280;50299;49.524;8.536;2022-07-29T05:11:38;100217.84;;;17.35;42.57
64053;BME280;50299;49.524;8.536;2022-07-29T05:14:04;100218.59;;;17.62;41.76
64053;BME280;50299;49.524;8.536;2022-07-29T05:16:31;100223.66;;;17.87;41.97
64053;BME280;50299;49.524;8.536;2022-07-29T05:18:57;100232.00;;;18.24;44.22
64053;BME280;50299;49.524;8.536;2022-07-29T05:21:24;100227.84;;;18.59;46.45
64053;BME280;50299;49.524;8.536;2022-07-29T05:23:50;100228.09;;;18.94;41.52
64053;BME280;50299;49.524;8.536;2022-07-29T05:26:17;100230.25;;;19.22;43.87
64053;BME280;50299;49.524;8.536;2022-07-29T05:28:43;100229.59;;;19.51;40.06
64053;BME280;50299;49.524;8.536;2022-07-29T05:31:09;100242.47;;;19.84;40.23
64053;BME280;50299;49.524;8.536;2022-07-29T05:33:36;100239.72;;;20.19;40.18
64053;BME280;50299;49.524;8.536;2022-07-29T05:36:04;100232.09;;;20.56;44.78
64053;BME280;50299;49.524;8.536;2022-07-29T05:38:33;100220.03;;;20.80;37.59
64053;BME280;50299;49.524;8.536;2022-07-29T05:40:59;100236.03;;;21.01;39.87
64053;BME280;50299;49.524;8.536;2022-07-29T05:43:29;100236.72;;;21.30;38.97
64053;BME280;50299;49.524;8.536;2022-07-29T05:45:56;100244.66;;;21.57;34.64
64053;BME280;50299;49.524;8.536;2022-07-29T05:48:22;100240.13;;;21.77;34.67
64053;BME280;50299;49.524;8.536;2022-07-29T05:50:49;100249.66;;;21.94;33.93
64053;BME280;50299;49.524;8.536;2022-07-29T05:53:16;100233.44;;;22.16;34.04
64053;BME280;50299;49.524;8.536;2022-07-29T05:55:46;100242.56;;;22.34;34.27
64053;BME280;50299;49.524;8.536;2022-07-29T05:58:13;100253.31;;;22.47;32.16
64053;BME280;50299;49.524;8.536;2022-07-29T06:00:39;100249.03;;;22.28;32.93
64053;BME280;50299;49.524;8.536;2022-07-29T06:03:06;100255.75;;;22.41;34.32
64053;BME280;50299;49.524;8.536;2022-07-29T06:05:32;100254.81;;;22.58;34.00
64053;BME280;50299;49.524;8.536;2022-07-29T06:07:59;100252.88;;;22.93;33.59
64053;BME280;50299;49.524;8.536;2022-07-29T06:10:25;100258.53;;;23.27;32.38
64053;BME280;50299;49.524;8.536;2022-07-29T06:12:52;100261.41;;;23.54;32.15
64053;BME280;50299;49.524;8.536;2022-07-29T06:15:19;100258.78;;;23.71;33.46
64053;BME280;50299;49.524;8.536;2022-07-29T06:17:45;100265.31;;;23.95;31.85
64053;BME280;50299;49.524;8.536;2022-07-29T06:20:27;100265.72;;;23.93;30.98
64053;BME280;50299;49.524;8.536;2022-07-29T06:22:56;100264.41;;;23.74;33.15
64053;BME280;50299;49.524;8.536;2022-07-29T06:25:22;100258.75;;;23.74;31.15
64053;BME280;50299;49.524;8.536;2022-07-29T06:27:49;100258.94;;;23.91;30.78
64053;BME280;50299;49.524;8.536;2022-07-29T06:30:15;100260.94;;;23.59;32.09
64053;BME280;50299;49.524;8.536;2022-07-29T06:32:42;100257.09;;;23.46;31.90
64053;BME280;50299;49.524;8.536;2022-07-29T06:35:09;100259.47;;;23.48;32.59
64053;BME280;50299;49.524;8.536;2022-07-29T06:37:55;100272.13;;;23.97;31.89
64053;BME280;50299;49.524;8.536;2022-07-29T06:40:25;100266.94;;;24.46;31.74
64053;BME280;50299;49.524;8.536;2022-07-29T06:43:11;100263.19;;;24.29;31.94
64053;BME280;50299;49.524;8.536;2022-07-29T06:45:37;100273.31;;;24.50;31.40
64053;BME280;50299;49.524;8.536;2022-07-29T06:48:07;100263.88;;;24.80;31.71
64053;BME280;50299;49.524;8.536;2022-07-29T06:50:34;100264.66;;;24.84;31.81
64053;BME280;50299;49.524;8.536;2022-07-29T06:53:00;100267.41;;;24.88;32.29
64053;BME280;50299;49.524;8.536;2022-07-29T06:55:27;100277.72;;;24.98;32.02
64053;BME280;50299;49.524;8.536;2022-07-29T06:57:53;100275.34;;;25.17;32.44
64053;BME280;50299;49.524;8.536;2022-07-29T07:00:20;100279.19;;;25.26;31.48
64053;BME280;50299;49.524;8.536;2022-07-29T07:02:46;100281.66;;;25.24;31.70
64053;BME280;50299;49.524;8.536;2022-07-29T07:05:13;100286.50;;;25.04;32.41
64053;BME280;50299;49.524;8.536;2022-07-29T07:07:39;100292.19;;;25.24;33.00
64053;BME280;50299;49.524;8.536;2022-07-29T07:10:06;100295.69;;;25.51;32.19
64053;BME280;50299;49.524;8.536;2022-07-29T07:12:33;100290.38;;;25.90;31.71
64053;BME280;50299;49.524;8.536;2022-07-29T07:14:59;100288.16;;;25.81;31.36
64053;BME280;50299;49.524;8.536;2022-07-29T07:17:26;100286.97;;;25.98;30.87
64053;BME280;50299;49.524;8.536;2022-07-29T07:19:52;100290.25;;;25.97;30.38
64053;BME280;50299;49.524;8.536;2022-07-29T07:22:18;100292.53;;;25.66;31.28
64053;BME280;50299;49.524;8.536;2022-07-29T07:24:45;100287.25;;;25.68;31.97
64053;BME280;50299;49.524;8.536;2022-07-29T07:27:11;100303.84;;;25.66;31.34
64053;BME280;50299;49.524;8.536;2022-07-29T07:29:38;100290.63;;;25.79;31.09
64053;BME280;50299;49.524;8.536;2022-07-29T07:32:09;100286.03;;;26.05;30.66
64053;BME280;50299;49.524;8.536;2022-07-29T07:34:36;100296.22;;;26.35;30.22
64053;BME280;50299;49.524;8.536;2022-07-29T07:37:04;100297.13;;;26.65;29.45
64053;BME280;50299;49.524;8.536;2022-07-29T07:39:31;100296.06;;;26.75;29.58
64053;BME280;50299;49.524;8.536;2022-07-29T07:41:57;100296.06;;;27.20;28.88
64053;BME280;50299;49.524;8.536;2022-07-29T07:44:24;100291.16;;;26.92;28.52
64053;BME280;50299;49.524;8.536;2022-07-29T07:46:50;100289.78;;;26.51;29.24
64053;BME280;50299;49.524;8.536;2022-07-29T07:49:17;100294.59;;;26.01;30.25
64053;BME280;50299;49.524;8.536;2022-07-29T07:51:43;100291.00;;;25.81;30.45
64053;BME280;50299;49.524;8.536;2022-07-29T07:54:16;100301.56;;;25.60;30.53
64053;BME280;50299;49.524;8.536;2022-07-29T07:56:46;100298.00;;;25.56;31.18
64053;BME280;50299;49.524;8.536;2022-07-29T07:59:16;100296.41;;;25.55;30.66
64053;BME280;50299;49.524;8.536;2022-07-29T08:01:43;100302.94;;;25.52;30.69
64053;BME280;50299;49.524;8.536;2022-07-29T08:04:20;100296.00;;;25.73;31.07
64053;BME280;50299;49.524;8.536;2022-07-29T08:06:53;100294.16;;;25.83;30.33
64053;BME280;50299;49.524;8.536;2022-07-29T08:09:23;100295.25;;;26.09;30.37
64053;BME280;50299;49.524;8.536;2022-07-29T08:11:57;100293.47;;;26.31;28.38
64053;BME280;50299;49.524;8.536;2022-07-29T08:14:24;100298.09;;;26.42;28.68
64053;BME280;50299;49.524;8.536;2022-07-29T08:16:50;100294.97;;;26.20;28.88
64053;BME280;50299;49.524;8.536;2022-07-29T08:19:17;100290.97;;;26.01;28.83
64053;BME280;50299;49.524;8.536;2022-07-29T08:21:44;100294.06;;;25.50;29.70
64053;BME280;50299;49.524;8.536;2022-07-29T08:24:10;100297.31;;;25.29;30.68
64053;BME280;50299;49.524;8.536;2022-07-29T08:26:55;100300.88;;;25.33;30.07
64053;BME280;50299;49.524;8.536;2022-07-29T08:29:22;100305.59;;;25.20;30.88
64053;BME280;50299;49.524;8.536;2022-07-29T08:31:48;100304.66;;;25.46;30.59
64053;BME280;50299;49.524;8.536;2022-07-29T08:34:15;100306.66;;;25.85;29.95
64053;BME280;50299;49.524;8.536;2022-07-29T08:36:41;100306.28;;;25.83;30.14
64053;BME280;50299;49.524;8.536;2022-07-29T08:39:08;100311.25;;;26.16;29.84
64053;BME280;50299;49.524;8.536;2022-07-29T08:41:35;100306.13;;;26.27;29.43
64053;BME280;50299;49.524;8.536;2022-07-29T08:44:01;100306.06;;;26.79;29.59
64053;BME280;50299;49.524;8.536;2022-07-29T08:46:28;100302.13;;;27.06;28.67
64053;BME280;50299;49.524;8.536;2022-07-29T08:48:55;100302.06;;;27.51;28.94
64053;BME280;50299;49.524;8.536;2022-07-29T08:51:21;100318.03;;;27.74;27.96
64053;BME280;50299;49.524;8.536;2022-07-29T08:53:49;100315.72;;;27.56;27.99
64053;BME280;50299;49.524;8.536;2022-07-29T08:56:17;100316.72;;;28.04;27.80
64053;BME280;50299;49.524;8.536;2022-07-29T08:58:46;100309.44;;;28.29;26.89
64053;BME280;50299;49.524;8.536;2022-07-29T09:01:22;100310.44;;;28.95;26.93
64053;BME280;50299;49.524;8.536;2022-07-29T09:04:04;100306.47;;;29.27;26.32
64053;BME280;50299;49.524;8.536;2022-07-29T09:06:34;100313.50;;;29.58;25.64
64053;BME280;50299;49.524;8.536;2022-07-29T09:09:02;100313.19;;;29.56;25.30
64053;BME280;50299;49.524;8.536;2022-07-29T09:11:31;100314.66;;;28.43;27.25
64053;BME280;50299;49.524;8.536;2022-07-29T09:13:58;100302.50;;;28.30;27.58
64053;BME280;50299;49.524;8.536;2022-07-29T09:16:24;100303.06;;;27.99;27.51
64053;BME280;50299;49.524;8.536;2022-07-29T09:21:51;100302.09;;;27.35;28.77
64053;BME280;50299;49.524;8.536;2022-07-29T09:24:26;100299.66;;;27.08;28.48
64053;BME280;50299;49.524;8.536;2022-07-29T09:26:53;100303.94;;;26.83;29.06
64053;BME280;50299;49.524;8.536;2022-07-29T09:29:22;100301.88;;;27.29;29.09
64053;BME280;50299;49.524;8.536;2022-07-29T09:31:51;100300.03;;;27.65;28.04
64053;BME280;50299;49.524;8.536;2022-07-29T09:34:26;100303.13;;;27.58;28.67
64053;BME280;50299;49.524;8.536;2022-07-29T09:36:54;100310.13;;;28.08;28.12
64053;BME280;50299;49.524;8.536;2022-07-29T09:39:30;100305.09;;;28.37;27.25
64053;BME280;50299;49.524;8.536;2022-07-29T09:42:00;100293.03;;;28.59;27.00
64053;BME280;50299;49.524;8.536;2022-07-29T09:44:40;100300.91;;;28.29;27.61
64053;BME280;50299;49.524;8.536;2022-07-29T09:47:07;100295.91;;;28.20;27.25
64053;BME280;50299;49.524;8.536;2022-07-29T09:49:36;100297.69;;;28.65;27.34
64053;BME280;50299;49.524;8.536;2022-07-29T09:52:15;100301.75;;;28.77;26.99
64053;BME280;50299;49.524;8.536;2022-07-29T09:54:42;100299.63;;;29.03;26.54
64053;BME280;50299;49.524;8.536;2022-07-29T09:57:21;100296.59;;;29.19;26.67
64053;BME280;50299;49.524;8.536;2022-07-29T10:00:09;100301.91;;;29.52;26.38
64053;BME280;50299;49.524;8.536;2022-07-29T10:02:37;100303.97;;;30.05;25.29
64053;BME280;50299;49.524;8.536;2022-07-29T10:05:06;100297.94;;;30.52;25.26
64053;BME280;50299;49.524;8.536;2022-07-29T10:07:56;100296.56;;;30.75;23.98
64053;BME280;50299;49.524;8.536;2022-07-29T10:10:27;100301.56;;;30.43;24.42
64053;BME280;50299;49.524;8.536;2022-07-29T10:13:05;100297.31;;;30.48;24.44
64053;BME280;50299;49.524;8.536;2022-07-29T10:15:41;100307.00;;;30.60;24.44
64053;BME280;50299;49.524;8.536;2022-07-29T10:18:11;100296.75;;;30.31;24.86
64053;BME280;50299;49.524;8.536;2022-07-29T10:20:38;100292.66;;;30.91;24.72
64053;BME280;50299;49.524;8.536;2022-07-29T10:23:05;100285.84;;;30.30;24.98
64053;BME280;50299;49.524;8.536;2022-07-29T10:25:32;100294.88;;;30.96;24.27
64053;BME280;50299;49.524;8.536;2022-07-29T10:27:58;100283.41;;;30.68;23.85
64053;BME280;50299;49.524;8.536;2022-07-29T10:30:25;100290.19;;;30.43;24.37
64053;BME280;50299;49.524;8.536;2022-07-29T10:38:43;100284.25;;;30.96;23.14
64053;BME280;50299;49.524;8.536;2022-07-29T10:44:20;100278.16;;;27.91;27.02
64053;BME280;50299;49.524;8.536;2022-07-29T10:46:49;100273.50;;;27.97;26.47
64053;BME280;50299;49.524;8.536;2022-07-29T10:49:24;100274.78;;;27.41;27.38
64053;BME280;50299;49.524;8.536;2022-07-29T10:52:06;100274.38;;;27.55;27.44
64053;BME280;50299;49.524;8.536;2022-07-29T10:57:25;100278.97;;;28.29;26.79
64053;BME280;50299;49.524;8.536;2022-07-29T11:02:44;100271.88;;;28.94;25.61
64053;BME280;50299;49.524;8.536;2022-07-29T11:05:19;100276.94;;;29.12;25.55
64053;BME280;50299;49.524;8.536;2022-07-29T11:13:50;100274.69;;;29.82;24.67
64053;BME280;50299;49.524;8.536;2022-07-29T11:16:20;100269.78;;;29.83;24.85
64053;BME280;50299;49.524;8.536;2022-07-29T11:21:41;100264.75;;;30.18;24.07
64053;BME280;50299;49.524;8.536;2022-07-29T11:24:26;100262.25;;;30.29;23.99
64053;BME280;50299;49.524;8.536;2022-07-29T11:27:11;100256.34;;;30.14;24.54
64053;BME280;50299;49.524;8.536;2022-07-29T11:29:59;100264.25;;;29.48;24.66
64053;BME280;50299;49.524;8.536;2022-07-29T11:32:38;100266.22;;;29.16;25.01
64053;BME280;50299;49.524;8.536;2022-07-29T11:35:21;100259.69;;;29.07;25.10
64053;BME280;50299;49.524;8.536;2022-07-29T11:38:25;100261.47;;;29.35;25.38
64053;BME280;50299;49.524;8.536;2022-07-29T11:43:56;100254.91;;;30.96;23.20
64053;BME280;50299;49.524;8.536;2022-07-29T11:49:09;100254.16;;;32.08;21.41
64053;BME280;50299;49.524;8.536;2022-07-29T11:51:40;100255.97;;;31.96;21.95
64053;BME280;50299;49.524;8.536;2022-07-29T11:54:31;100245.84;;;31.25;21.83
64053;BME280;50299;49.524;8.536;2022-07-29T11:57:06;100254.16;;;29.87;23.78
64053;BME280;50299;49.524;8.536;2022-07-29T11:59:41;100240.84;;;29.53;24.59
64053;BME280;50299;49.524;8.536;2022-07-29T12:02:11;100239.75;;;29.91;23.69
64053;BME280;50299;49.524;8.536;2022-07-29T12:04:57;100233.41;;;30.27;24.00
64053;BME280;50299;49.524;8.536;2022-07-29T12:07:33;100227.88;;;29.83;24.24
64053;BME280;50299;49.524;8.536;2022-07-29T12:10:01;100222.97;;;30.33;23.00
64053;BME280;50299;49.524;8.536;2022-07-29T12:12:28;100231.81;;;30.17;22.97
64053;BME280;50299;49.524;8.536;2022-07-29T12:14:54;100230.13;;;29.88;23.23
64053;BME280;50299;49.524;8.536;2022-07-29T12:17:34;100233.31;;;29.37;24.18
64053;BME280;50299;49.524;8.536;2022-07-29T12:20:03;100222.63;;;30.22;23.40
64053;BME280;50299;49.524;8.536;2022-07-29T12:22:31;100229.91;;;29.83;23.34
64053;BME280;50299;49.524;8.536;2022-07-29T12:25:08;100235.56;;;30.05;23.15
64053;BME280;50299;49.524;8.536;2022-07-29T12:28:00;100230.88;;;30.20;23.02
64053;BME280;50299;49.524;8.536;2022-07-29T12:30:47;100229.66;;;30.48;22.04
64053;BME280;50299;49.524;8.536;2022-07-29T12:33:24;100228.09;;;31.21;21.40
64053;BME280;50299;49.524;8.536;2022-07-29T12:35:58;100241.88;;;31.13;20.41
64053;BME280;50299;49.524;8.536;2022-07-29T12:38:39;100224.25;;;31.42;20.68
64053;BME280;50299;49.524;8.536;2022-07-29T12:41:06;100226.63;;;31.35;20.36
64053;BME280;50299;49.524;8.536;2022-07-29T12:43:33;100217.16;;;30.83;20.83
64053;BME280;50299;49.524;8.536;2022-07-29T12:46:14;100221.25;;;31.18;20.73
64053;BME280;50299;49.524;8.536;2022-07-29T12:48:42;100223.56;;;31.57;20.25
64053;BME280;50299;49.524;8.536;2022-07-29T12:51:10;100218.59;;;31.06;20.77
64053;BME280;50299;49.524;8.536;2022-07-29T12:53:38;100216.81;;;31.36;20.56
64053;BME280;50299;49.524;8.536;2022-07-29T12:56:05;100212.03;;;32.17;20.38
64053;BME280;50299;49.524;8.536;2022-07-29T12:58:52;100206.84;;;32.79;19.10
64053;BME280;50299;49.524;8.536;2022-07-29T13:01:19;100204.22;;;32.66;19.12
64053;BME280;50299;49.524;8.536;2022-07-29T13:03:54;100203.53;;;30.41;21.42
64053;BME280;50299;49.524;8.536;2022-07-29T13:06:38;100207.16;;;29.51;22.55
64053;BME280;50299;49.524;8.536;2022-07-29T13:11:47;100203.44;;;30.04;21.85
64053;BME280;50299;49.524;8.536;2022-07-29T13:14:33;100197.28;;;30.24;21.88
64053;BME280;50299;49.524;8.536;2022-07-29T13:19:46;100205.22;;;30.20;20.71
64053;BME280;50299;49.524;8.536;2022-07-29T13:22:19;100213.66;;;29.52;21.66
64053;BME280;50299;49.524;8.536;2022-07-29T13:24:52;100210.38;;;30.03;20.49
64053;BME280;50299;49.524;8.536;2022-07-29T13:27:22;100208.88;;;30.39;21.24
64053;BME280;50299;49.524;8.536;2022-07-29T13:29:49;100215.88;;;29.57;20.73
64053;BME280;50299;49.524;8.536;2022-07-29T13:32:18;100216.56;;;29.39;21.22
64053;BME280;50299;49.524;8.536;2022-07-29T13:34:54;100223.19;;;29.36;21.22
64053;BME280;50299;49.524;8.536;2022-07-29T13:37:20;100215.72;;;29.30;21.69
64053;BME280;50299;49.524;8.536;2022-07-29T13:39:47;100212.06;;;28.85;22.19
64053;BME280;50299;49.524;8.536;2022-07-29T13:42:18;100216.03;;;28.88;23.00
64053;BME280;50299;49.524;8.536;2022-07-29T13:44:45;100218.28;;;29.37;21.78
64053;BME280;50299;49.524;8.536;2022-07-29T13:47:11;100211.94;;;28.89;22.36
64053;BME280;50299;49.524;8.536;2022-07-29T13:49:38;100212.56;;;29.06;21.84
64053;BME280;50299;49.524;8.536;2022-07-29T13:52:05;100211.28;;;28.50;22.00
64053;BME280;50299;49.524;8.536;2022-07-29T13:54:33;100205.91;;;28.65;22.18